createdAt,value
2022-09-21T00:01:17.352Z,2.24
2022-09-21T00:03:44.195Z,2.16
2022-09-21T00:06:16.488Z,2.15
2022-09-21T00:08:43.206Z,2.18
2022-09-21T00:11:14.130Z,2.16
2022-09-21T00:13:40.814Z,2.13
2022-09-21T00:16:08.051Z,2.15
2022-09-21T00:18:34.832Z,2.09
2022-09-21T00:21:02.171Z,2.05
2022-09-21T00:23:29.363Z,2.01
2022-09-21T00:26:09.875Z,2.02
2022-09-21T00:28:36.604Z,1.98
2022-09-21T00:31:04.574Z,1.89
2022-09-21T00:33:31.498Z,1.90
2022-09-21T00:36:04.652Z,1.85
2022-09-21T00:38:31.638Z,1.85
2022-09-21T00:40:58.240Z,1.86
2022-09-21T00:43:24.859Z,1.92
2022-09-21T00:45:53.484Z,1.82
2022-09-21T00:48:22.098Z,1.80
2022-09-21T00:50:50.003Z,1.78
2022-09-21T00:53:16.900Z,1.76
2022-09-21T00:55:45.467Z,1.67
2022-09-21T00:58:15.405Z,1.70
2022-09-21T01:00:42.162Z,1.63
2022-09-21T01:03:08.860Z,1.63
2022-09-21T01:05:35.427Z,1.62
2022-09-21T01:08:02.813Z,1.65
2022-09-21T01:10:31.808Z,1.63
2022-09-21T01:12:58.502Z,1.75
2022-09-21T01:15:33.936Z,1.58
2022-09-21T01:18:20.811Z,1.68
2022-09-21T01:20:55.853Z,1.61
2022-09-21T01:23:39.509Z,1.62
2022-09-21T01:26:27.135Z,1.62
2022-09-21T01:29:21.101Z,1.55
2022-09-21T01:31:58.598Z,1.40
2022-09-21T01:34:42.768Z,1.43
2022-09-21T01:37:12.733Z,1.46
2022-09-21T01:39:39.353Z,1.43
2022-09-21T01:42:06.629Z,1.43
2022-09-21T01:44:33.498Z,1.45
2022-09-21T01:47:03.657Z,1.34
2022-09-21T01:49:32.785Z,1.33
2022-09-21T01:52:02.560Z,1.29
2022-09-21T01:54:34.101Z,1.26
2022-09-21T01:57:00.479Z,1.21
2022-09-21T01:59:32.594Z,1.26
2022-09-21T02:02:01.161Z,1.26
2022-09-21T02:04:27.745Z,1.31
2022-09-21T02:06:54.372Z,1.28
2022-09-21T02:09:22.419Z,1.27
2022-09-21T02:11:49.020Z,1.30
2022-09-21T02:14:17.384Z,1.19
2022-09-21T02:17:13.328Z,1.04
2022-09-21T02:19:48.038Z,1.07
2022-09-21T02:22:31.722Z,1.08
2022-09-21T02:25:15.809Z,1.06
2022-09-21T02:28:01.774Z,1.07
2022-09-21T02:30:28.296Z,1.04
2022-09-21T02:33:15.782Z,1.03
2022-09-21T02:35:51.151Z,0.92
2022-09-21T02:38:40.433Z,0.90
2022-09-21T02:41:13.905Z,0.86
2022-09-21T02:44:01.862Z,0.83
2022-09-21T02:46:35.502Z,0.90
2022-09-21T02:49:07.555Z,0.87
2022-09-21T02:51:37.129Z,0.83
2022-09-21T02:54:04.693Z,0.75
2022-09-21T02:56:31.316Z,0.70
2022-09-21T02:59:00.516Z,0.65
2022-09-21T03:01:27.182Z,0.79
2022-09-21T03:03:53.815Z,0.80
2022-09-21T03:06:20.407Z,0.74
2022-09-21T03:08:47.061Z,0.73
2022-09-21T03:11:17.832Z,0.70
2022-09-21T03:13:44.451Z,0.67
2022-09-21T03:16:11.550Z,0.74
2022-09-21T03:18:38.249Z,0.64
2022-09-21T03:21:04.891Z,0.64
2022-09-21T03:23:31.567Z,0.60
2022-09-21T03:25:58.282Z,0.57
2022-09-21T03:28:24.948Z,0.56
2022-09-21T03:30:51.763Z,0.60
2022-09-21T03:33:19.047Z,0.55
2022-09-21T03:35:46.034Z,0.53
2022-09-21T03:38:13.069Z,0.55
2022-09-21T03:40:39.747Z,0.45
2022-09-21T03:43:06.550Z,0.43
2022-09-21T03:45:33.189Z,0.41
2022-09-21T03:48:00.296Z,0.41
2022-09-21T03:50:28.200Z,0.42
2022-09-21T03:52:58.108Z,0.43
2022-09-21T03:55:25.029Z,0.41
2022-09-21T03:57:51.940Z,0.45
2022-09-21T04:00:19.183Z,0.45
2022-09-21T04:02:45.942Z,0.46
2022-09-21T04:05:13.836Z,0.51
2022-09-21T04:07:40.599Z,0.42
2022-09-21T04:10:08.328Z,0.33
2022-09-21T04:12:34.989Z,0.28
2022-09-21T04:15:01.796Z,0.27
2022-09-21T04:17:28.680Z,0.32
2022-09-21T04:19:55.342Z,0.28
2022-09-21T04:22:22.153Z,0.33
2022-09-21T04:24:48.828Z,0.28
2022-09-21T04:27:15.493Z,0.29
2022-09-21T04:29:42.109Z,0.31
2022-09-21T04:32:09.465Z,0.22
2022-09-21T04:34:36.066Z,0.17
2022-09-21T04:37:02.708Z,0.24
2022-09-21T04:39:29.335Z,0.22
2022-09-21T04:41:56.231Z,0.22
2022-09-21T04:44:22.914Z,0.18
2022-09-21T04:46:49.469Z,0.12
2022-09-21T04:49:16.133Z,0.17
2022-09-21T04:51:42.785Z,0.20
2022-09-21T04:54:09.768Z,0.11
2022-09-21T04:56:36.387Z,0.16
2022-09-21T04:59:03.086Z,0.15
2022-09-21T05:01:29.924Z,0.10
2022-09-21T05:03:56.745Z,0.15
2022-09-21T05:06:23.438Z,0.16
2022-09-21T05:08:50.069Z,0.12
2022-09-21T05:11:18.269Z,-0.52
2022-09-21T05:13:45.481Z,0.13
2022-09-21T05:16:12.601Z,0.07
2022-09-21T05:18:39.372Z,0.15
2022-09-21T05:21:06.001Z,0.19
2022-09-21T05:23:32.627Z,0.23
2022-09-21T05:25:59.500Z,0.30
2022-09-21T05:28:27.028Z,0.25
2022-09-21T05:31:18.722Z,0.28
2022-09-21T05:33:53.981Z,0.35
2022-09-21T05:36:51.049Z,0.39
2022-09-21T05:39:17.957Z,0.32
2022-09-21T05:41:46.451Z,0.34
2022-09-21T05:44:13.904Z,0.29
2022-09-21T05:46:43.080Z,0.36
2022-09-21T05:49:12.585Z,0.36
2022-09-21T05:52:08.947Z,0.42
2022-09-21T05:55:14.080Z,0.43
2022-09-21T05:57:55.426Z,0.50
2022-09-21T06:00:22.930Z,0.59
2022-09-21T06:02:51.008Z,0.69
2022-09-21T06:05:17.916Z,0.63
2022-09-21T06:07:44.630Z,0.66
2022-09-21T06:10:12.951Z,0.81
2022-09-21T06:12:40.244Z,1.05
2022-09-21T06:15:07.888Z,1.09
2022-09-21T06:17:34.464Z,1.17
2022-09-21T06:20:01.225Z,1.25
2022-09-21T06:22:27.914Z,1.34
2022-09-21T06:24:54.497Z,1.37
2022-09-21T06:27:21.906Z,1.49
2022-09-21T06:29:48.571Z,1.52
2022-09-21T06:32:15.313Z,1.65
2022-09-21T06:34:41.941Z,1.72
2022-09-21T06:37:09.101Z,1.84
2022-09-21T06:39:35.784Z,1.95
2022-09-21T06:42:02.443Z,2.13
2022-09-21T06:44:29.071Z,2.34
2022-09-21T06:46:55.708Z,2.50
2022-09-21T06:49:22.346Z,2.78
2022-09-21T06:51:48.988Z,2.96
2022-09-21T06:54:15.618Z,3.12
2022-09-21T06:56:42.576Z,3.37
2022-09-21T06:59:09.311Z,3.52
2022-09-21T07:01:35.919Z,3.80
2022-09-21T07:04:02.594Z,3.99
2022-09-21T07:06:29.230Z,4.13
2022-09-21T07:11:42.511Z,4.30
2022-09-21T07:14:09.815Z,4.35
2022-09-21T07:16:36.482Z,4.40
2022-09-21T07:19:10.331Z,4.62
2022-09-21T07:21:37.928Z,4.75
2022-09-21T07:24:08.267Z,4.78
2022-09-21T07:26:37.885Z,5.01
2022-09-21T07:29:04.867Z,5.27
2022-09-21T07:31:31.669Z,5.30
2022-09-21T07:33:59.832Z,5.32
2022-09-21T07:36:26.500Z,5.33
2022-09-21T07:38:53.347Z,5.33
2022-09-21T07:41:19.987Z,5.28
2022-09-21T07:43:46.646Z,5.38
2022-09-21T07:46:13.816Z,5.54
2022-09-21T07:48:40.774Z,5.62
2022-09-21T07:51:08.660Z,5.80
2022-09-21T07:53:35.983Z,6.04
2022-09-21T07:56:07.624Z,6.11
2022-09-21T07:58:38.134Z,6.24
2022-09-21T08:01:06.219Z,6.37
2022-09-21T08:03:32.822Z,6.64
2022-09-21T08:05:59.759Z,7.18
2022-09-21T08:08:26.473Z,7.58
2022-09-21T08:10:53.134Z,7.72
2022-09-21T08:13:19.810Z,7.84
2022-09-21T08:15:50.062Z,8.38
2022-09-21T08:18:17.068Z,8.58
2022-09-21T08:20:43.785Z,8.72
2022-09-21T08:23:10.503Z,8.49
2022-09-21T08:25:37.255Z,8.79
2022-09-21T08:28:08.822Z,9.43
2022-09-21T08:30:36.301Z,10.25
2022-09-21T08:33:03.120Z,11.43
2022-09-21T08:35:30.730Z,12.08
2022-09-21T08:37:57.347Z,12.23
2022-09-21T08:40:24.146Z,12.40
2022-09-21T08:43:01.324Z,13.02
2022-09-21T08:45:35.182Z,14.04
2022-09-21T08:48:03.842Z,14.09
2022-09-21T08:50:42.682Z,14.67
2022-09-21T08:53:41.345Z,14.94
2022-09-21T08:56:11.245Z,15.13
2022-09-21T08:58:37.844Z,15.31
2022-09-21T09:01:19.772Z,15.74
2022-09-21T09:04:05.967Z,16.09
2022-09-21T09:06:41.868Z,16.49
2022-09-21T09:09:45.816Z,16.48
2022-09-21T09:12:23.580Z,16.83
2022-09-21T09:15:00.037Z,17.02
2022-09-21T09:17:43.020Z,17.33
2022-09-21T09:20:21.672Z,17.74
2022-09-21T09:23:02.146Z,17.90
2022-09-21T09:25:28.769Z,18.15
2022-09-21T09:27:56.426Z,18.15
2022-09-21T09:30:29.210Z,17.76
2022-09-21T09:33:22.073Z,18.20
2022-09-21T09:35:51.018Z,18.43
2022-09-21T09:38:24.672Z,18.39
2022-09-21T09:41:30.874Z,18.63
2022-09-21T09:44:34.831Z,19.22
2022-09-21T09:47:04.422Z,19.17
2022-09-21T09:49:52.461Z,19.54
2022-09-21T09:52:19.152Z,19.35
2022-09-21T09:54:45.708Z,19.96
2022-09-21T09:57:13.545Z,19.74
2022-09-21T09:59:50.476Z,19.93
2022-09-21T10:02:21.931Z,20.25
2022-09-21T10:05:04.836Z,20.23
2022-09-21T10:07:37.496Z,20.38
2022-09-21T10:10:29.142Z,20.40
2022-09-21T10:13:06.790Z,20.44
2022-09-21T10:15:33.558Z,20.17
2022-09-21T10:18:11.410Z,17.77
2022-09-21T10:20:38.053Z,17.57
2022-09-21T10:23:04.653Z,18.70
2022-09-21T10:25:31.337Z,18.91
2022-09-21T10:27:58.218Z,18.03
2022-09-21T10:30:31.526Z,18.75
2022-09-21T10:32:58.661Z,19.11
2022-09-21T10:35:25.778Z,18.83
2022-09-21T10:38:10.585Z,17.90
2022-09-21T10:40:37.941Z,16.73
2022-09-21T10:43:04.601Z,16.56
2022-09-21T10:45:32.389Z,16.76
2022-09-21T10:47:59.781Z,16.90
2022-09-21T10:50:45.466Z,16.05
2022-09-21T10:53:30.956Z,16.31
2022-09-21T10:56:19.064Z,16.58
2022-09-21T10:59:26.794Z,16.25
2022-09-21T11:01:55.543Z,15.41
2022-09-21T11:04:25.205Z,14.95
2022-09-21T11:06:58.740Z,14.40
2022-09-21T11:09:31.650Z,13.72
2022-09-21T11:12:06.088Z,14.19
2022-09-21T11:14:42.429Z,14.49
2022-09-21T11:17:14.998Z,14.81
2022-09-21T11:19:47.415Z,14.96
2022-09-21T11:22:23.184Z,14.96
2022-09-21T11:25:06.413Z,15.21
2022-09-21T11:27:43.212Z,15.35
2022-09-21T11:30:12.730Z,15.53
2022-09-21T11:32:42.049Z,14.78
2022-09-21T11:35:08.497Z,14.10
2022-09-21T11:37:46.370Z,13.58
2022-09-21T11:40:33.842Z,13.42
2022-09-21T11:43:16.740Z,13.32
2022-09-21T11:45:50.762Z,13.43
2022-09-21T11:48:45.361Z,14.01
2022-09-21T11:51:25.901Z,13.93
2022-09-21T11:54:41.744Z,14.07
2022-09-21T11:57:25.344Z,14.20
2022-09-21T12:00:14.240Z,14.41
2022-09-21T12:03:19.348Z,14.48
2022-09-21T12:06:11.906Z,14.63
2022-09-21T12:09:05.674Z,14.94
2022-09-21T12:11:36.889Z,14.92
2022-09-21T12:14:33.689Z,15.00
2022-09-21T12:17:16.055Z,15.03
2022-09-21T12:19:47.623Z,15.14
2022-09-21T12:22:23.944Z,15.05
2022-09-21T12:24:54.766Z,15.09
2022-09-21T12:27:27.093Z,15.36
2022-09-21T12:29:57.058Z,15.49
2022-09-21T12:32:36.984Z,14.87
2022-09-21T12:35:05.114Z,14.51
2022-09-21T12:37:45.998Z,14.44
2022-09-21T12:40:21.128Z,14.36
2022-09-21T12:43:25.637Z,14.49
2022-09-21T12:46:01.970Z,14.53
2022-09-21T12:48:38.927Z,14.49
2022-09-21T12:51:23.866Z,14.13
2022-09-21T12:53:53.001Z,13.54
2022-09-21T12:56:41.360Z,13.25
2022-09-21T12:59:56.009Z,13.16
2022-09-21T13:02:41.526Z,12.91
2022-09-21T13:05:26.758Z,13.24
2022-09-21T13:08:00.865Z,13.41
2022-09-21T13:10:27.282Z,13.69
2022-09-21T13:12:56.528Z,13.92
2022-09-21T13:15:28.246Z,13.98
2022-09-21T13:18:05.627Z,13.91
2022-09-21T13:20:36.762Z,13.91
2022-09-21T13:23:04.061Z,14.07
2022-09-21T13:25:31.786Z,14.01
2022-09-21T13:28:14.427Z,14.13
2022-09-21T13:31:39.456Z,14.15
2022-09-21T13:34:23.234Z,14.26
2022-09-21T13:37:11.527Z,14.05
2022-09-21T13:39:44.477Z,14.26
2022-09-21T13:42:44.056Z,14.41
2022-09-21T13:45:14.163Z,14.33
2022-09-21T13:47:47.155Z,14.22
2022-09-21T13:50:20.216Z,14.20
2022-09-21T13:52:48.472Z,13.83
2022-09-21T13:55:25.334Z,13.89
2022-09-21T13:57:52.969Z,13.82
2022-09-21T14:00:19.432Z,13.63
2022-09-21T14:02:52.842Z,13.39
2022-09-21T14:05:34.405Z,13.35
2022-09-21T14:08:33.152Z,13.33
2022-09-21T14:11:16.001Z,13.41
2022-09-21T14:13:47.010Z,13.61
2022-09-21T14:16:29.225Z,13.71
2022-09-21T14:18:56.266Z,13.88
2022-09-21T14:21:23.025Z,13.78
2022-09-21T14:24:18.536Z,13.69
2022-09-21T14:26:59.744Z,13.50
2022-09-21T14:29:38.202Z,13.52
2022-09-21T14:32:05.584Z,13.46
2022-09-21T14:34:34.579Z,13.45
2022-09-21T14:37:03.720Z,13.48
2022-09-21T14:39:31.578Z,13.47
2022-09-21T14:42:00.886Z,13.27
2022-09-21T14:44:29.773Z,13.28
2022-09-21T14:47:42.084Z,13.14
2022-09-21T14:50:30.010Z,13.07
2022-09-21T14:53:08.971Z,13.13
2022-09-21T14:56:06.039Z,13.06
2022-09-21T14:58:54.691Z,13.14
2022-09-21T15:01:27.119Z,13.06
2022-09-21T15:04:12.363Z,13.03
2022-09-21T15:06:43.580Z,13.07
2022-09-21T15:09:34.860Z,13.12
2022-09-21T15:12:11.324Z,13.11
2022-09-21T15:14:41.049Z,13.07
2022-09-21T15:17:27.021Z,13.04
2022-09-21T15:19:58.020Z,13.02
2022-09-21T15:22:24.597Z,12.92
2022-09-21T15:24:55.753Z,12.85
2022-09-21T15:27:23.885Z,12.99
2022-09-21T15:29:54.619Z,12.97
2022-09-21T15:32:38.000Z,12.96
2022-09-21T15:35:11.504Z,12.83
2022-09-21T15:37:38.128Z,12.85
2022-09-21T15:40:07.286Z,12.70
2022-09-21T15:42:34.983Z,12.62
2022-09-21T15:45:15.058Z,12.56
2022-09-21T15:47:41.710Z,12.45
2022-09-21T15:50:14.782Z,12.45
2022-09-21T15:52:46.190Z,12.38
2022-09-21T15:55:20.295Z,12.28
2022-09-21T15:57:56.546Z,12.17
2022-09-21T16:00:26.187Z,12.20
2022-09-21T16:03:06.938Z,12.10
2022-09-21T16:05:45.376Z,12.05
2022-09-21T16:08:33.941Z,12.09
2022-09-21T16:11:20.630Z,11.95
2022-09-21T16:13:47.418Z,11.87
2022-09-21T16:16:14.660Z,11.74
2022-09-21T16:18:48.316Z,11.73
2022-09-21T16:21:23.141Z,11.60
2022-09-21T16:23:50.771Z,11.52
2022-09-21T16:26:23.399Z,11.47
2022-09-21T16:28:55.612Z,11.33
2022-09-21T16:31:24.343Z,11.20
2022-09-21T16:33:50.863Z,11.11
2022-09-21T16:36:22.804Z,11.01
2022-09-21T16:38:49.520Z,10.87
2022-09-21T16:41:16.605Z,10.70
2022-09-21T16:43:43.917Z,10.58
2022-09-21T16:46:10.986Z,10.48
2022-09-21T16:48:37.683Z,10.36
2022-09-21T16:51:10.220Z,10.26
2022-09-21T16:53:36.756Z,10.11
2022-09-21T16:56:03.362Z,9.76
2022-09-21T16:58:31.847Z,9.58
2022-09-21T17:01:00.848Z,9.41
2022-09-21T17:03:27.752Z,9.35
2022-09-21T17:05:55.547Z,9.17
2022-09-21T17:08:22.099Z,9.02
2022-09-21T17:10:48.959Z,8.97
2022-09-21T17:13:15.586Z,8.72
2022-09-21T17:15:44.557Z,8.59
2022-09-21T17:18:12.206Z,8.48
2022-09-21T17:20:41.129Z,8.33
2022-09-21T17:23:07.887Z,8.13
2022-09-21T17:25:34.619Z,8.06
2022-09-21T17:28:01.920Z,7.99
2022-09-21T17:33:19.131Z,7.87
2022-09-21T17:35:45.884Z,7.70
2022-09-21T17:38:14.588Z,7.71
2022-09-21T17:40:41.663Z,7.50
2022-09-21T17:43:16.963Z,7.48
2022-09-21T17:46:02.058Z,7.36
2022-09-21T17:48:33.746Z,7.23
2022-09-21T17:51:00.985Z,7.23
2022-09-21T17:53:27.753Z,7.12
2022-09-21T17:55:57.258Z,6.94
2022-09-21T17:58:47.117Z,6.85
2022-09-21T18:01:17.499Z,6.71
2022-09-21T18:03:44.232Z,6.70
2022-09-21T18:06:11.334Z,6.61
2022-09-21T18:08:38.748Z,6.53
2022-09-21T18:11:28.740Z,6.50
2022-09-21T18:14:19.904Z,6.36
2022-09-21T18:17:07.004Z,6.25
2022-09-21T18:20:02.703Z,6.26
2022-09-21T18:22:44.834Z,6.14
2022-09-21T18:25:16.654Z,6.04
2022-09-21T18:27:43.580Z,6.01
2022-09-21T18:30:11.879Z,5.92
2022-09-21T18:32:44.373Z,5.97
2022-09-21T18:35:44.995Z,5.96
2022-09-21T18:38:27.648Z,5.88
2022-09-21T18:40:57.384Z,5.84
2022-09-21T18:43:36.100Z,5.81
2022-09-21T18:46:05.812Z,5.62
2022-09-21T18:48:49.969Z,5.55
2022-09-21T18:51:22.634Z,5.48
2022-09-21T18:53:50.833Z,5.35
2022-09-21T18:56:17.560Z,5.42
2022-09-21T18:58:44.320Z,5.39
2022-09-21T19:01:14.445Z,5.35
2022-09-21T19:03:41.637Z,5.26
2022-09-21T19:06:35.332Z,5.14
2022-09-21T19:09:20.046Z,5.04
2022-09-21T19:11:58.692Z,5.13
2022-09-21T19:15:03.395Z,5.12
2022-09-21T19:17:39.722Z,4.97
2022-09-21T19:20:37.480Z,4.89
2022-09-21T19:23:31.014Z,4.92
2022-09-21T19:26:18.372Z,4.94
2022-09-21T19:28:50.369Z,4.78
2022-09-21T19:31:17.887Z,4.84
2022-09-21T19:33:52.077Z,4.74
2022-09-21T19:36:20.620Z,4.72
2022-09-21T19:38:47.414Z,4.70
2022-09-21T19:41:44.437Z,4.67
2022-09-21T19:44:45.107Z,4.63
2022-09-21T19:47:30.980Z,4.64
2022-09-21T19:50:28.594Z,4.59
2022-09-21T19:52:55.512Z,4.41
2022-09-21T19:55:22.596Z,4.38
2022-09-21T19:57:49.705Z,4.39
2022-09-21T20:00:16.817Z,4.52
2022-09-21T20:02:50.772Z,4.52
2022-09-21T20:05:22.716Z,4.45
2022-09-21T20:07:52.139Z,4.27
2022-09-21T20:10:34.242Z,4.21
2022-09-21T20:13:18.829Z,4.26
2022-09-21T20:15:50.033Z,4.20
2022-09-21T20:18:37.136Z,4.18
2022-09-21T20:21:04.117Z,4.16
2022-09-21T20:23:30.970Z,4.15
2022-09-21T20:26:00.752Z,4.14
2022-09-21T20:28:27.518Z,4.02
2022-09-21T20:30:54.186Z,3.98
2022-09-21T20:33:20.920Z,4.03
2022-09-21T20:35:47.401Z,3.94
2022-09-21T20:38:13.999Z,3.89
2022-09-21T20:40:40.741Z,3.80
2022-09-21T20:43:09.196Z,3.82
2022-09-21T20:45:36.483Z,3.75
2022-09-21T20:48:03.123Z,3.69
2022-09-21T20:50:29.777Z,3.60
2022-09-21T20:52:56.402Z,3.62
2022-09-21T20:55:24.437Z,3.67
2022-09-21T20:57:51.018Z,3.55
2022-09-21T21:00:19.431Z,3.47
2022-09-21T21:02:46.156Z,3.50
2022-09-21T21:05:12.820Z,3.46
2022-09-21T21:07:42.610Z,3.51
2022-09-21T21:10:09.577Z,3.42
2022-09-21T21:12:36.152Z,3.28
2022-09-21T21:15:02.798Z,3.26
2022-09-21T21:17:29.752Z,3.23
2022-09-21T21:19:56.422Z,3.22
2022-09-21T21:22:23.051Z,3.17
2022-09-21T21:24:49.713Z,3.22
2022-09-21T21:27:18.268Z,3.23
2022-09-21T21:29:45.416Z,3.31
2022-09-21T21:32:13.051Z,3.22
2022-09-21T21:34:39.753Z,3.04
2022-09-21T21:37:06.429Z,2.98
2022-09-21T21:39:33.055Z,2.99
2022-09-21T21:41:59.771Z,2.98
2022-09-21T21:44:26.446Z,2.91
2022-09-21T21:46:53.134Z,2.87
2022-09-21T21:49:20.412Z,2.90
2022-09-21T21:51:47.069Z,2.92
2022-09-21T21:54:13.879Z,3.01
2022-09-21T21:56:40.411Z,2.95
2022-09-21T21:59:07.038Z,2.91
2022-09-21T22:01:33.811Z,2.89
2022-09-21T22:04:01.733Z,2.86
2022-09-21T22:06:29.554Z,2.75
2022-09-21T22:08:56.266Z,2.78
2022-09-21T22:11:23.304Z,2.78
2022-09-21T22:13:49.932Z,2.72
2022-09-21T22:16:17.977Z,2.76
2022-09-21T22:18:44.704Z,2.71
2022-09-21T22:21:13.295Z,2.57
2022-09-21T22:23:40.042Z,2.51
2022-09-21T22:26:11.237Z,2.48
2022-09-21T22:28:39.139Z,2.45
2022-09-21T22:31:10.622Z,2.44
2022-09-21T22:33:37.562Z,2.45
2022-09-21T22:36:05.193Z,2.45
2022-09-21T22:38:33.051Z,2.39
2022-09-21T22:41:07.291Z,2.46
2022-09-21T22:43:33.898Z,2.30
2022-09-21T22:46:00.565Z,2.33
2022-09-21T22:48:27.404Z,2.29
2022-09-21T22:50:54.073Z,2.22
2022-09-21T22:53:21.279Z,2.16
2022-09-21T22:55:48.205Z,2.22
2022-09-21T22:58:14.994Z,2.09
2022-09-21T23:00:41.578Z,2.13
2022-09-21T23:03:08.220Z,2.04
2022-09-21T23:05:34.870Z,2.07
2022-09-21T23:08:01.739Z,2.16
2022-09-21T23:10:28.297Z,2.12
2022-09-21T23:12:54.905Z,2.10
2022-09-21T23:15:21.560Z,2.07
2022-09-21T23:17:48.118Z,2.10
2022-09-21T23:20:14.809Z,1.98
2022-09-21T23:22:41.382Z,1.94
2022-09-21T23:25:08.243Z,1.87
2022-09-21T23:27:34.915Z,1.87
2022-09-21T23:30:01.425Z,1.95
2022-09-21T23:32:28.220Z,1.86
2022-09-21T23:34:54.859Z,1.88
2022-09-21T23:37:21.425Z,1.84
2022-09-21T23:39:47.962Z,1.82
2022-09-21T23:42:14.504Z,1.70
2022-09-21T23:44:41.082Z,1.68
2022-09-21T23:47:07.805Z,1.75
2022-09-21T23:49:34.468Z,1.76
2022-09-21T23:52:01.219Z,1.77
2022-09-21T23:54:27.859Z,1.76
2022-09-21T23:56:54.441Z,1.67
2022-09-21T23:59:21.129Z,1.63
